»·PEaware :: N520LE KBUR-KLAS

N520LE :: KBUR-KLAS

FLIGHT INFORMATION

Flight Status: Arrived
Operator: Privately registered:
United States
More flights under this callsign
Pilot: Dong L. (28209)
Aircraft: AIRBUS A320
(A320)
More flights by this aircraft type
Origin: KBUR Bob Hope-Burbank
United States
Destination: KLAS McCarran Intl
United States
More flights between these airports :: More routes between these airports
Route: +SLAPP1 MISEN KEPEC6
File this flight plan on PilotEdge
Remarks:
Altitude:
(Current/Filed)
37,000ft
Speed:
(Current/Filed)
300kts
Departed: 01-Aug-20 09:10 PM
Arrived: 01-Aug-20 10:41 PM
Distance/Time
Traveled:
194nm/1:31
Distance/Time
To Go:
Arrived

Flight Plot

Page will automatically refresh every two minutes.


Map Options




Map Legend


Flown Route
Filed Route
Departure Airport
Arrival Airport
Navaid (VOR, NDB)
Fix

Horizontal Profiles

Position Reports

Time Latitude Longitude Heading Altitude Ground
Speed
01-Aug-20 20:35 34.196795 -118.352868 179 709ft 0kts
01-Aug-20 20:36 34.196795 -118.352868 179 709ft 0kts
01-Aug-20 20:37 34.196795 -118.352868 179 709ft 0kts
01-Aug-20 20:38 34.196795 -118.352868 179 709ft 0kts
01-Aug-20 20:39 34.196795 -118.352868 179 709ft 0kts
01-Aug-20 20:40 34.196795 -118.352868 179 709ft 0kts
01-Aug-20 20:41 34.196795 -118.352868 179 709ft 0kts
01-Aug-20 20:42 34.196795 -118.352868 179 709ft 0kts
01-Aug-20 20:43 34.196795 -118.352868 179 709ft 0kts
01-Aug-20 20:44 34.196795 -118.352868 179 709ft 0kts
01-Aug-20 20:45 34.196795 -118.352868 179 709ft 0kts
01-Aug-20 20:46 34.196795 -118.352868 179 709ft 0kts
01-Aug-20 20:47 34.196795 -118.352868 179 709ft 0kts
01-Aug-20 20:48 34.196795 -118.352868 179 709ft 0kts
01-Aug-20 20:49 34.196795 -118.352868 179 709ft 0kts
01-Aug-20 20:50 34.196795 -118.352868 179 709ft 0kts
01-Aug-20 20:51 34.196795 -118.352868 179 709ft 0kts
01-Aug-20 20:52 34.196795 -118.352868 179 709ft 0kts
01-Aug-20 20:53 34.196795 -118.352868 179 709ft 0kts
01-Aug-20 20:54 34.196795 -118.352868 179 709ft 0kts
01-Aug-20 20:55 34.196795 -118.352868 179 709ft 0kts
01-Aug-20 20:56 34.196795 -118.352868 179 709ft 0kts
01-Aug-20 20:57 34.196873 -118.352869 180 710ft 2kts
01-Aug-20 20:58 34.197185 -118.352454 274 710ft 1kts
01-Aug-20 20:59 34.197183 -118.352416 271 710ft 0kts
01-Aug-20 21:00 34.197183 -118.352416 271 710ft 0kts
01-Aug-20 21:01 34.197185 -118.352516 271 710ft 1kts
01-Aug-20 21:02 34.197815 -118.354963 311 717ft 15kts
01-Aug-20 21:03 34.201734 -118.356186 348 735ft 12kts
01-Aug-20 21:04 34.205967 -118.357353 347 756ft 25kts
01-Aug-20 21:05 34.211536 -118.359052 321 780ft 1kts
01-Aug-20 21:06 34.211618 -118.359143 313 781ft 0kts
01-Aug-20 21:07 34.211671 -118.359210 313 781ft 3kts
01-Aug-20 21:08 34.211453 -118.360223 188 782ft 0kts
01-Aug-20 21:09 34.202419 -118.357627 166 879ft 155kts
01-Aug-20 21:10 34.157807 -118.386589 223 3877ft 229kts
01-Aug-20 21:11 34.113339 -118.438486 250 4224ft 218kts
01-Aug-20 21:12 34.153907 -118.486550 352 7357ft 282kts
01-Aug-20 21:13 34.232619 -118.466269 23 11226ft 333kts
01-Aug-20 21:14 34.320283 -118.415184 24 15071ft 359kts
01-Aug-20 21:15 34.410312 -118.362898 24 17014ft 361kts
01-Aug-20 21:16 34.495627 -118.299982 38 17021ft 363kts
01-Aug-20 21:20 34.196810 -118.352868 179 709ft 0kts
01-Aug-20 21:21 34.196810 -118.352868 179 709ft 0kts
01-Aug-20 21:22 34.196810 -118.352868 179 709ft 0kts
01-Aug-20 21:23 34.196810 -118.352868 179 709ft 0kts
01-Aug-20 21:24 34.196810 -118.352868 179 709ft 0kts
01-Aug-20 21:25 34.196810 -118.352868 179 709ft 0kts
01-Aug-20 21:26 34.196810 -118.352868 179 709ft 0kts
01-Aug-20 21:27 34.196810 -118.352868 179 709ft 0kts
01-Aug-20 21:28 34.196810 -118.352868 179 709ft 0kts
01-Aug-20 21:29 34.196810 -118.352868 179 709ft 0kts
01-Aug-20 21:30 34.196810 -118.352868 179 709ft 0kts
01-Aug-20 21:31 34.196810 -118.352868 179 709ft 0kts
01-Aug-20 21:32 34.196810 -118.352868 179 709ft 0kts
01-Aug-20 21:33 34.196810 -118.352868 179 709ft 0kts
01-Aug-20 21:34 34.196810 -118.352868 179 709ft 0kts
01-Aug-20 21:35 34.196810 -118.352868 179 709ft 0kts
01-Aug-20 21:36 34.196810 -118.352868 179 709ft 0kts
01-Aug-20 21:37 34.196810 -118.352868 179 710ft 0kts
01-Aug-20 21:38 34.196810 -118.352868 179 710ft 0kts
01-Aug-20 21:39 34.197210 -118.352620 265 711ft 0kts
01-Aug-20 21:40 34.197208 -118.352529 270 710ft 0kts
01-Aug-20 21:41 34.197215 -118.353169 271 711ft 4kts
01-Aug-20 21:42 34.197228 -118.354719 270 714ft 5kts
01-Aug-20 21:43 34.198947 -118.355448 346 721ft 10kts
01-Aug-20 21:45 34.202120 -118.356291 347 737ft 10kts
01-Aug-20 21:46 34.205427 -118.357227 347 753ft 13kts
01-Aug-20 21:47 34.209667 -118.358383 347 772ft 14kts
01-Aug-20 21:48 34.211612 -118.359129 310 780ft 0kts
01-Aug-20 21:49 34.211612 -118.359129 310 780ft 0kts
01-Aug-20 21:50 34.211275 -118.360179 169 782ft 0kts
01-Aug-20 21:51 34.210149 -118.359850 166 777ft 59kts
01-Aug-20 21:52 34.165758 -118.360383 210 3777ft 202kts
01-Aug-20 21:53 34.128525 -118.415108 277 4017ft 213kts
01-Aug-20 21:54 34.174374 -118.444512 353 4012ft 209kts
01-Aug-20 21:55 34.240203 -118.452132 352 5579ft 286kts
01-Aug-20 21:56 34.320053 -118.460233 352 10440ft 299kts
01-Aug-20 21:57 34.406359 -118.428449 50 12814ft 369kts
01-Aug-20 21:58 34.467458 -118.328779 43 13013ft 370kts
01-Aug-20 21:59 34.546168 -118.249409 37 13012ft 368kts
01-Aug-20 22:00 34.625459 -118.169955 38 14449ft 374kts
01-Aug-20 22:01 34.676409 -118.062255 78 17977ft 390kts
01-Aug-20 22:02 34.694177 -117.929454 85 20876ft 409kts
01-Aug-20 22:02 34.701205 -117.812763 85 22993ft 424kts
01-Aug-20 22:04 34.709158 -117.641541 86 25106ft 456kts
01-Aug-20 22:04 34.716118 -117.508387 78 25684ft 488kts
01-Aug-20 22:05 34.756702 -117.348594 71 26890ft 500kts
01-Aug-20 22:07 34.806505 -117.160557 71 27045ft 501kts
01-Aug-20 22:07 34.842071 -117.025317 71 27055ft 502kts
01-Aug-20 22:08 34.884345 -116.863660 71 27031ft 503kts
01-Aug-20 22:09 34.933417 -116.704049 55 27035ft 501kts
01-Aug-20 22:10 35.010500 -116.567157 53 24937ft 482kts
01-Aug-20 22:11 35.086253 -116.432531 53 24029ft 481kts
01-Aug-20 22:12 35.175460 -116.312386 44 24026ft 477kts
01-Aug-20 22:13 35.266934 -116.197173 44 23949ft 452kts
01-Aug-20 22:14 35.357204 -116.083860 44 22967ft 467kts
01-Aug-20 22:15 35.447037 -115.970411 44 21973ft 460kts
01-Aug-20 22:16 35.534009 -115.860134 44 19848ft 434kts
01-Aug-20 22:17 35.611111 -115.762160 44 16680ft 353kts
01-Aug-20 22:18 35.675450 -115.680160 45 13764ft 327kts
01-Aug-20 22:19 35.738767 -115.599118 45 13000ft 328kts
01-Aug-20 22:20 35.812965 -115.543643 353 13003ft 322kts
01-Aug-20 22:21 35.901635 -115.554787 351 12990ft 321kts
01-Aug-20 22:22 35.981764 -115.527332 62 12828ft 314kts
01-Aug-20 22:23 36.012927 -115.431823 69 11663ft 297kts
01-Aug-20 22:24 36.028148 -115.334683 97 11032ft 293kts
01-Aug-20 22:25 36.021029 -115.236824 97 9468ft 285kts
01-Aug-20 22:26 36.014493 -115.142869 97 8681ft 261kts
01-Aug-20 22:27 36.008618 -115.054115 96 8039ft 261kts
01-Aug-20 22:28 36.003412 -114.965546 96 7420ft 256kts
01-Aug-20 22:29 35.998150 -114.877968 96 6323ft 256kts
01-Aug-20 22:30 35.992980 -114.789548 96 6040ft 257kts
01-Aug-20 22:31 36.019655 -114.721591 359 6080ft 208kts
01-Aug-20 22:32 36.063160 -114.757024 285 6042ft 189kts
01-Aug-20 22:33 36.073608 -114.819799 269 6040ft 186kts
01-Aug-20 22:34 36.073499 -114.882820 267 5299ft 180kts
01-Aug-20 22:35 36.073861 -114.933367 269 4895ft 118kts
01-Aug-20 22:36 36.073827 -114.973531 269 3834ft 118kts
01-Aug-20 22:37 36.073850 -115.014515 265 3686ft 117kts
01-Aug-20 22:38 36.073710 -115.057550 264 3122ft 117kts
01-Aug-20 22:39 36.073557 -115.100576 269 2440ft 127kts
01-Aug-20 22:40 36.073587 -115.137210 269 2080ft 31kts
01-Aug-20 22:41 36.074096 -115.144478 293 2101ft 16kts
01-Aug-20 22:42 36.074733 -115.145933 299 2104ft 0kts
01-Aug-20 22:43 36.075257 -115.146525 346 2106ft 17kts
01-Aug-20 22:44 36.077591 -115.146564 355 2104ft 0kts
01-Aug-20 22:45 36.078723 -115.150332 274 2113ft 9kts
01-Aug-20 22:46 36.082092 -115.151907 309 2112ft 8kts
01-Aug-20 22:47 36.082656 -115.152223 332 2112ft 0kts
01-Aug-20 22:48 36.082656 -115.152223 332 2112ft 0kts
01-Aug-20 22:49 36.082656 -115.152223 332 2112ft 0kts
01-Aug-20 22:50 36.082656 -115.152223 332 2112ft 0kts

Navigation Log

Ident Type
Flight plan parsing failed, navigation log unavailable